Time;durP1;ratioP1;P1;durP2;ratioP2;P2;SDS_P1;SDS_P2;PMS_P1;PMS_P2;Temp;Humidity;BMP_temperature;BMP_pressure;BME280_temperature;BME280_humidity;BME280_pressure;Samples;Min_cycle;Max_cycle;Signal;HPM_P1;HPM_P2
2021/04/02 00:01:38;;;;;;;21.67;6.10;;;;;;;5.08;69.16;102476.00;4989355;28;20031;-66
2021/04/02 00:04:04;;;;;;;21.08;5.82;;;;;;;5.00;68.97;102475.63;5001315;28;20028;-66
2021/04/02 00:06:29;;;;;;;21.33;6.30;;;;;;;5.01;69.12;102476.50;4970047;28;20038;-65
2021/04/02 00:08:54;;;;;;;22.83;6.20;;;;;;;4.90;69.90;102468.09;5002045;28;20081;-64
2021/04/02 00:11:20;;;;;;;23.05;6.00;;;;;;;4.93;69.34;102473.47;4981195;28;20030;-65
2021/04/02 00:13:47;;;;;;;22.60;6.45;;;;;;;4.99;68.95;102475.53;4969004;28;20065;-64
2021/04/02 00:16:14;;;;;;;22.98;6.07;;;;;;;4.88;69.46;102475.88;4984954;28;20111;-65
2021/04/02 00:18:40;;;;;;;22.20;5.95;;;;;;;4.83;69.57;102473.81;4986784;28;20031;-64
2021/04/02 00:21:08;;;;;;;21.40;5.97;;;;;;;4.80;69.70;102474.53;4970300;28;20054;-65
2021/04/02 00:23:34;;;;;;;21.30;6.30;;;;;;;4.74;69.34;102471.59;4969834;28;20037;-63
2021/04/02 00:26:00;;;;;;;23.25;6.05;;;;;;;4.72;69.42;102468.00;4985459;28;20485;-66
2021/04/02 00:28:26;;;;;;;21.42;6.63;;;;;;;4.70;69.92;102470.53;5037604;28;20034;-64
2021/04/02 00:30:55;;;;;;;24.77;6.43;;;;;;;4.68;69.83;102468.66;5036462;28;20041;-67
2021/04/02 00:33:22;;;;;;;21.38;6.53;;;;;;;4.64;69.70;102462.34;4985113;28;20370;-64
2021/04/02 00:35:48;;;;;;;20.85;5.63;;;;;;;4.59;70.15;102461.19;4974278;28;20488;-65
2021/04/02 00:38:13;;;;;;;21.88;6.60;;;;;;;4.51;69.90;102468.66;4986095;28;20035;-64
2021/04/02 00:40:45;;;;;;;22.23;6.20;;;;;;;4.51;69.91;102467.72;5001038;28;20034;-64
2021/04/02 00:43:12;;;;;;;25.83;6.50;;;;;;;4.47;70.20;102470.97;4969296;28;20075;-65
2021/04/02 00:45:38;;;;;;;22.48;5.60;;;;;;;4.45;70.66;102457.81;5000533;28;20035;-64
2021/04/02 00:48:05;;;;;;;21.52;5.97;;;;;;;4.45;70.00;102465.66;4970632;28;20031;-65
2021/04/02 00:50:52;;;;;;;22.17;6.10;;;;;;;4.43;68.45;102456.84;4979059;28;20108;-66
2021/04/02 00:53:19;;;;;;;19.48;5.82;;;;;;;4.32;70.03;102460.56;4966905;28;20466;-65
2021/04/02 00:55:45;;;;;;;24.13;6.40;;;;;;;4.25;70.43;102461.97;4967987;28;20457;-66
2021/04/02 00:58:17;;;;;;;22.95;6.07;;;;;;;4.15;70.73;102457.91;5003022;28;20076;-65
2021/04/02 01:00:43;;;;;;;24.43;6.87;;;;;;;4.06;71.48;102457.38;4984784;28;20505;-67
2021/04/02 01:03:09;;;;;;;21.42;6.32;;;;;;;4.00;72.08;102457.03;4969768;28;20469;-67
2021/04/02 01:05:40;;;;;;;24.15;6.57;;;;;;;3.96;71.98;102458.59;4985370;28;20528;-67
2021/04/02 01:08:12;;;;;;;23.90;6.70;;;;;;;3.88;72.16;102467.72;4987565;28;20038;-67
2021/04/02 01:10:38;;;;;;;26.35;6.60;;;;;;;3.91;72.50;102469.59;4986054;28;20414;-67
2021/04/02 01:13:20;;;;;;;24.05;6.18;;;;;;;3.88;72.17;102464.19;4988614;28;20045;-67
2021/04/02 01:15:48;;;;;;;24.33;6.55;;;;;;;3.83;72.80;102463.94;4969851;28;20110;-67
2021/04/02 01:18:29;;;;;;;23.08;6.97;;;;;;;3.81;73.12;102470.78;4984520;28;20020;-67
2021/04/02 01:20:59;;;;;;;26.40;6.93;;;;;;;3.75;73.56;102466.09;4969299;28;20482;-67
2021/04/02 01:23:30;;;;;;;24.38;6.93;;;;;;;3.76;74.12;102467.91;4966912;28;20062;-67
2021/04/02 01:26:23;;;;;;;23.80;6.75;;;;;;;3.74;72.02;102461.69;4967006;28;20117;-66
2021/04/02 01:29:08;;;;;;;24.83;6.82;;;;;;;3.72;73.89;102452.84;4968570;28;20085;-67
2021/04/02 01:31:37;;;;;;;24.05;6.65;;;;;;;3.70;74.10;102457.09;5001246;28;20063;-67
2021/04/02 01:34:03;;;;;;;23.73;7.00;;;;;;;3.68;74.43;102453.47;4969160;28;20035;-67
2021/04/02 01:36:31;;;;;;;24.08;6.70;;;;;;;3.66;74.40;102465.56;5033516;28;20427;-67
2021/04/02 01:38:57;;;;;;;24.63;6.82;;;;;;;3.61;75.23;102457.47;4969165;28;20054;-67
2021/04/02 01:41:25;;;;;;;22.95;6.32;;;;;;;3.59;75.13;102460.78;5002979;28;20054;-67
2021/04/02 01:43:53;;;;;;;23.92;6.70;;;;;;;3.54;74.93;102456.97;4964559;28;20481;-67
2021/04/02 01:46:20;;;;;;;21.98;6.78;;;;;;;3.50;75.67;102461.16;4985811;28;20032;-67
2021/04/02 01:48:50;;;;;;;25.67;6.68;;;;;;;3.46;75.87;102457.44;4994594;28;20045;-67
2021/04/02 01:51:17;;;;;;;26.35;6.95;;;;;;;3.42;76.02;102458.09;4986004;28;20027;-67
2021/04/02 01:53:45;;;;;;;24.50;7.05;;;;;;;3.40;76.66;102470.16;4983699;28;20055;-67
2021/04/02 01:56:12;;;;;;;22.92;6.60;;;;;;;3.37;76.38;102467.34;4983925;28;20436;-67
2021/04/02 01:58:41;;;;;;;23.13;6.90;;;;;;;3.35;76.22;102466.38;4981223;28;20030;-67
2021/04/02 02:01:07;;;;;;;24.17;6.70;;;;;;;3.34;76.45;102463.69;4993306;28;20027;-67
2021/04/02 02:03:34;;;;;;;22.85;6.65;;;;;;;3.31;76.62;102467.88;4983459;28;20023;-66
2021/04/02 02:06:02;;;;;;;23.40;6.95;;;;;;;3.28;77.04;102466.81;4988388;28;20531;-67
2021/04/02 02:08:28;;;;;;;23.13;6.45;;;;;;;3.28;77.12;102466.81;4972276;28;20068;-66
2021/04/02 02:11:00;;;;;;;21.95;6.72;;;;;;;3.28;76.57;102466.81;4987898;28;20130;-67
2021/04/02 02:13:27;;;;;;;22.73;6.90;;;;;;;3.21;76.87;102464.66;4970747;28;20042;-67
2021/04/02 02:15:54;;;;;;;25.38;6.88;;;;;;;3.17;77.45;102470.50;5003700;28;20027;-66
2021/04/02 02:18:24;;;;;;;22.23;6.25;;;;;;;3.13;77.44;102462.47;4972827;28;20032;-67
2021/04/02 02:20:50;;;;;;;22.83;6.80;;;;;;;3.11;77.76;102466.69;5002681;28;20031;-67
2021/04/02 02:23:16;;;;;;;23.40;6.28;;;;;;;3.05;78.20;102463.72;4971485;28;20027;-68
2021/04/02 02:25:42;;;;;;;28.17;6.47;;;;;;;3.05;78.08;102470.66;4986825;28;20047;-66
2021/04/02 02:28:08;;;;;;;24.45;6.50;;;;;;;3.01;78.22;102456.47;4982535;28;20432;-67
2021/04/02 02:30:34;;;;;;;24.70;6.50;;;;;;;3.04;78.24;102455.78;4992051;28;20022;-67
2021/04/02 02:32:59;;;;;;;22.60;6.72;;;;;;;3.01;78.63;102453.88;4971135;28;20489;-67
2021/04/02 02:35:25;;;;;;;23.13;6.45;;;;;;;2.96;78.80;102452.72;4986896;28;20111;-67
2021/04/02 02:37:52;;;;;;;23.35;6.32;;;;;;;2.97;79.05;102455.41;4987395;28;20112;-66
2021/04/02 02:40:20;;;;;;;23.48;6.22;;;;;;;2.99;78.94;102459.84;4990844;28;20116;-66
2021/04/02 02:42:48;;;;;;;24.58;6.72;;;;;;;2.97;79.25;102458.03;4971558;28;20046;-67
2021/04/02 02:45:14;;;;;;;22.60;5.72;;;;;;;2.92;79.64;102446.38;4986672;28;20041;-66
2021/04/02 02:47:41;;;;;;;22.33;6.75;;;;;;;2.91;79.61;102447.22;5051608;28;20394;-67
2021/04/02 02:50:11;;;;;;;21.42;6.25;;;;;;;2.90;79.62;102453.22;4991548;28;20034;-67
2021/04/02 02:52:39;;;;;;;20.83;6.03;;;;;;;2.84;80.34;102447.63;4981185;28;20041;-67
2021/04/02 02:55:05;;;;;;;24.70;6.03;;;;;;;2.87;80.18;102452.13;4989295;28;20165;-67
2021/04/02 02:57:32;;;;;;;22.42;6.40;;;;;;;2.82;80.58;102450.94;4992001;28;20494;-66
2021/04/02 02:59:59;;;;;;;24.50;6.90;;;;;;;2.77;80.82;102459.41;4987484;28;20424;-67
2021/04/02 03:02:27;;;;;;;24.15;6.47;;;;;;;2.77;80.96;102454.19;4971408;28;20119;-67
2021/04/02 03:04:55;;;;;;;22.73;6.70;;;;;;;2.75;80.72;102447.97;4967850;28;20176;-66
2021/04/02 03:07:22;;;;;;;22.60;6.18;;;;;;;2.70;80.61;102459.81;4988629;28;20018;-67
2021/04/02 03:09:50;;;;;;;21.77;6.38;;;;;;;2.67;81.10;102459.63;4989453;28;20543;-67
2021/04/02 03:12:17;;;;;;;23.30;6.53;;;;;;;2.67;81.05;102459.63;4987370;28;20042;-67
2021/04/02 03:14:44;;;;;;;22.23;6.38;;;;;;;2.61;82.49;102457.53;4971099;28;20058;-67
2021/04/02 03:17:10;;;;;;;22.40;6.50;;;;;;;2.60;82.16;102457.44;4987163;28;20073;-67
2021/04/02 03:19:37;;;;;;;24.05;6.68;;;;;;;2.56;81.94;102455.44;4971272;28;20494;-65
2021/04/02 03:22:05;;;;;;;23.00;6.10;;;;;;;2.54;82.30;102464.91;4971117;28;20052;-66
2021/04/02 03:24:31;;;;;;;22.33;6.15;;;;;;;2.50;83.08;102465.50;5017166;28;20081;-67
2021/04/02 03:27:00;;;;;;;22.77;6.00;;;;;;;2.48;83.01;102468.03;4971548;28;20055;-66
2021/04/02 03:29:26;;;;;;;22.52;6.60;;;;;;;2.49;83.00;102471.53;5004074;28;20097;-66
2021/04/02 03:31:55;;;;;;;21.73;5.88;;;;;;;2.49;82.50;102474.16;4987439;28;20158;-66
2021/04/02 03:34:23;;;;;;;22.55;6.20;;;;;;;2.44;82.84;102472.13;4985075;28;20047;-66
2021/04/02 03:36:51;;;;;;;22.70;5.95;;;;;;;2.43;82.45;102472.03;4987535;28;20050;-66
2021/04/02 03:39:21;;;;;;;21.40;6.13;;;;;;;2.39;83.92;102476.19;4986043;28;20024;-66
2021/04/02 03:41:51;;;;;;;21.90;5.90;;;;;;;2.35;83.89;102474.19;4977630;28;20034;-66
2021/04/02 03:44:20;;;;;;;23.70;6.03;;;;;;;2.33;84.45;102465.34;4973940;28;20114;-67
2021/04/02 03:46:47;;;;;;;21.88;6.10;;;;;;;2.36;83.09;102465.56;4985761;28;20134;-66
2021/04/02 03:49:15;;;;;;;21.10;5.90;;;;;;;2.35;83.02;102473.28;4971052;28;20100;-66
2021/04/02 03:51:42;;;;;;;22.85;5.95;;;;;;;2.26;85.22;102471.00;4985533;28;20037;-67
2021/04/02 03:54:10;;;;;;;22.95;6.05;;;;;;;2.29;84.50;102476.41;4985997;28;20046;-66
2021/04/02 03:56:37;;;;;;;23.25;6.20;;;;;;;2.29;85.64;102470.25;4985093;28;20440;-64
2021/04/02 03:59:05;;;;;;;22.92;6.20;;;;;;;2.34;84.55;102469.75;4980597;28;20114;-64
2021/04/02 04:01:34;;;;;;;23.15;5.95;;;;;;;2.38;84.79;102466.53;4989747;28;20412;-64
2021/04/02 04:04:01;;;;;;;20.40;5.78;;;;;;;2.48;83.85;102467.13;4970311;28;20037;-66
2021/04/02 04:06:28;;;;;;;23.33;5.97;;;;;;;2.47;83.94;102462.72;4988860;28;20030;-65
2021/04/02 04:08:57;;;;;;;20.30;5.97;;;;;;;2.43;83.58;102465.13;4970454;28;20050;-65
2021/04/02 04:11:24;;;;;;;21.65;5.90;;;;;;;2.40;83.98;102469.25;5003432;28;20028;-66
2021/04/02 04:13:53;;;;;;;20.45;5.85;;;;;;;2.35;83.95;102473.28;4988806;28;20068;-64
2021/04/02 04:16:21;;;;;;;24.80;5.97;;;;;;;2.30;85.17;102477.28;4970542;28;20035;-64
2021/04/02 04:19:04;;;;;;;22.25;6.00;;;;;;;2.33;84.56;102483.63;5146738;27;20735;-66
2021/04/02 04:21:40;;;;;;;22.55;6.63;;;;;;;2.32;85.05;102473.09;5141523;27;20027;-66
2021/04/02 04:24:09;;;;;;;19.40;5.85;;;;;;;2.32;85.08;102484.41;5143096;27;20105;-65
2021/04/02 04:26:36;;;;;;;23.75;6.60;;;;;;;2.29;87.08;102481.63;5145721;27;20380;-64
2021/04/02 04:29:03;;;;;;;23.40;6.47;;;;;;;2.27;85.61;102483.22;5147785;27;20071;-64
2021/04/02 04:31:30;;;;;;;23.73;6.50;;;;;;;2.25;85.30;102487.44;5147479;27;20015;-65
2021/04/02 04:33:59;;;;;;;22.25;6.07;;;;;;;2.25;85.56;102484.84;5143148;27;20015;-66
2021/04/02 04:36:25;;;;;;;23.20;5.97;;;;;;;2.20;86.03;102481.94;5142687;27;20023;-65
2021/04/02 04:38:52;;;;;;;22.60;6.15;;;;;;;2.17;86.31;102484.34;5145955;27;20522;-65
2021/04/02 04:41:19;;;;;;;22.33;6.32;;;;;;;2.17;85.30;102486.97;5147657;27;20023;-67
2021/04/02 04:43:45;;;;;;;25.80;6.30;;;;;;;2.12;86.33;102484.84;5143917;27;20015;-66
2021/04/02 04:46:11;;;;;;;23.98;6.03;;;;;;;2.09;86.67;102486.44;5147971;27;20030;-65
2021/04/02 04:48:36;;;;;;;22.15;5.97;;;;;;;2.07;86.82;102489.78;5144095;27;20110;-65
2021/04/02 04:51:04;;;;;;;23.90;6.40;;;;;;;2.03;87.01;102491.25;5143261;27;20019;-65
2021/04/02 04:53:31;;;;;;;22.20;5.80;;;;;;;2.05;87.19;102488.75;5144651;27;20023;-68
2021/04/02 04:55:59;;;;;;;24.05;6.30;;;;;;;2.02;87.21;102497.28;5148657;27;20023;-67
2021/04/02 04:58:29;;;;;;;24.13;6.63;;;;;;;2.00;87.57;102488.47;5148603;27;20055;-66
2021/04/02 05:00:56;;;;;;;22.95;6.35;;;;;;;1.99;87.44;102489.25;5148906;27;20022;-67
2021/04/02 05:03:23;;;;;;;22.58;6.47;;;;;;;1.98;87.12;102487.47;5149055;27;20033;-67
2021/04/02 05:05:53;;;;;;;23.77;7.03;;;;;;;1.91;87.22;102498.31;5149457;27;20488;-67
2021/04/02 05:08:24;;;;;;;23.08;6.72;;;;;;;1.88;87.81;102488.56;5149300;27;20026;-67
2021/04/02 05:10:52;;;;;;;23.65;7.00;;;;;;;1.87;89.96;102494.56;5148996;27;20457;-67
2021/04/02 05:13:20;;;;;;;25.15;7.32;;;;;;;1.88;89.75;102495.50;5148365;27;20123;-67
2021/04/02 05:15:46;;;;;;;23.55;6.50;;;;;;;1.90;89.33;102501.69;5148194;27;20027;-66
2021/04/02 05:18:13;;;;;;;22.77;6.57;;;;;;;1.90;89.06;102501.69;5148846;27;20393;-67
2021/04/02 05:20:43;;;;;;;22.50;6.70;;;;;;;1.90;89.42;102499.97;5149205;27;20073;-66
2021/04/02 05:23:10;;;;;;;22.75;6.85;;;;;;;1.92;89.79;102510.50;5148398;27;20027;-67
2021/04/02 05:25:36;;;;;;;25.40;7.25;;;;;;;1.93;89.25;102507.13;5149893;27;20484;-67
2021/04/02 05:28:03;;;;;;;23.92;7.07;;;;;;;1.92;90.59;102506.22;5148411;27;20026;-67
2021/04/02 05:30:28;;;;;;;24.33;7.13;;;;;;;1.95;90.52;102510.72;5134655;27;20042;-67
2021/04/02 05:32:54;;;;;;;24.13;7.10;;;;;;;1.98;89.54;102515.25;5134511;27;20488;-67
2021/04/02 05:35:20;;;;;;;21.48;7.38;;;;;;;2.03;88.93;102514.75;5135354;27;20095;-66
2021/04/02 05:37:45;;;;;;;23.23;7.18;;;;;;;2.12;88.49;102514.44;5135141;27;20355;-67
2021/04/02 05:40:11;;;;;;;24.70;7.38;;;;;;;2.19;88.59;102519.25;5134410;27;20019;-68
2021/04/02 05:42:40;;;;;;;24.13;7.55;;;;;;;2.21;88.99;102527.19;5134241;27;20058;-68
2021/04/02 05:45:07;;;;;;;24.90;7.50;;;;;;;2.26;87.99;102523.19;5134193;27;20574;-68
2021/04/02 05:47:33;;;;;;;23.80;7.07;;;;;;;2.30;88.04;102527.81;5134700;27;20098;-67
2021/04/02 05:50:01;;;;;;;25.65;7.20;;;;;;;2.40;87.56;102526.66;5134995;27;20042;-68
2021/04/02 05:52:28;;;;;;;24.63;7.50;;;;;;;2.50;87.02;102528.19;5131252;27;20373;-69
2021/04/02 05:54:56;;;;;;;24.90;7.00;;;;;;;2.54;87.18;102535.41;5133347;27;20145;-71
2021/04/02 05:57:22;;;;;;;24.42;7.78;;;;;;;2.59;86.97;102533.97;5133792;27;20031;-71
2021/04/02 05:59:47;;;;;;;25.63;7.43;;;;;;;2.60;86.47;102538.41;5134627;27;20374;-69
2021/04/02 06:02:15;;;;;;;25.27;7.35;;;;;;;2.66;86.04;102535.28;5134435;27;20034;-70
2021/04/02 06:04:40;;;;;;;24.23;7.40;;;;;;;2.65;85.61;102537.00;5133854;27;20027;-67
2021/04/02 06:07:05;;;;;;;22.83;7.18;;;;;;;2.63;85.86;102537.69;5132928;27;20118;-67
2021/04/02 06:09:31;;;;;;;22.13;7.20;;;;;;;2.61;85.49;102540.22;5133879;27;20473;-68
2021/04/02 06:11:57;;;;;;;25.85;7.50;;;;;;;2.63;85.80;102545.53;5134455;27;20390;-68
2021/04/02 06:14:22;;;;;;;25.15;7.93;;;;;;;2.63;85.52;102545.53;5134037;27;20023;-69
2021/04/02 06:16:53;;;;;;;26.90;7.72;;;;;;;2.65;85.68;102538.69;5133901;27;20121;-68
2021/04/02 06:19:19;;;;;;;22.52;7.13;;;;;;;2.66;85.53;102544.00;5133993;27;20019;-70
2021/04/02 06:21:45;;;;;;;23.13;7.10;;;;;;;2.69;85.76;102538.09;5133753;27;20109;-67
2021/04/02 06:24:12;;;;;;;23.88;7.05;;;;;;;2.77;85.81;102545.59;5133113;27;20450;-69
2021/04/02 06:26:38;;;;;;;25.17;7.50;;;;;;;2.85;86.52;102534.72;5134176;27;20024;-70
2021/04/02 06:29:03;;;;;;;22.42;7.25;;;;;;;2.95;85.66;102538.00;5133779;27;20418;-70
2021/04/02 06:31:31;;;;;;;24.45;7.20;;;;;;;3.02;85.12;102539.31;5133831;27;20019;-70
2021/04/02 06:33:56;;;;;;;22.92;7.78;;;;;;;3.05;85.45;102539.47;5131716;27;20054;-68
2021/04/02 06:36:27;;;;;;;24.25;7.10;;;;;;;3.19;83.98;102545.59;5133562;27;20051;-68
2021/04/02 06:38:58;;;;;;;24.10;7.22;;;;;;;3.25;84.45;102537.22;5133201;27;20449;-72
2021/04/02 06:41:25;;;;;;;23.83;6.85;;;;;;;3.35;84.58;102536.03;5132766;27;20114;-69
2021/04/02 06:43:55;;;;;;;24.02;7.22;;;;;;;3.46;83.44;102535.88;5132187;27;20079;-69
2021/04/02 06:46:24;;;;;;;24.80;6.90;;;;;;;3.51;83.09;102540.50;5132842;27;20500;-70
2021/04/02 06:48:51;;;;;;;23.80;7.15;;;;;;;3.57;83.15;102533.00;5132579;27;20150;-71
2021/04/02 06:51:18;;;;;;;24.85;6.78;;;;;;;3.70;83.36;102534.66;5133470;27;20027;-68
2021/04/02 06:53:46;;;;;;;23.95;6.75;;;;;;;3.75;81.52;102541.97;5132890;27;20029;-68
2021/04/02 06:56:13;;;;;;;25.52;6.70;;;;;;;3.82;81.53;102535.38;5132668;27;20042;-67
2021/04/02 06:58:39;;;;;;;24.95;7.18;;;;;;;3.90;80.76;102534.09;5133277;27;20027;-69
2021/04/02 07:01:06;;;;;;;23.17;6.68;;;;;;;3.97;81.06;102543.22;5132427;27;20032;-69
2021/04/02 07:03:33;;;;;;;21.33;6.07;;;;;;;4.06;80.19;102540.25;5132499;27;20023;-69
2021/04/02 07:06:01;;;;;;;23.95;6.45;;;;;;;4.09;79.02;102541.34;5133593;27;20076;-66
2021/04/02 07:08:27;;;;;;;22.63;6.00;;;;;;;4.15;78.76;102538.16;5131320;27;20027;-68
2021/04/02 07:10:55;;;;;;;21.52;6.05;;;;;;;4.28;79.19;102540.69;5133118;27;20385;-70
2021/04/02 07:13:20;;;;;;;26.67;6.78;;;;;;;4.35;79.12;102537.59;5131776;27;20048;-67
2021/04/02 07:15:46;;;;;;;25.45;6.80;;;;;;;4.41;78.12;102544.88;5130073;27;20011;-69
2021/04/02 07:18:13;;;;;;;23.85;5.82;;;;;;;4.47;77.97;102549.56;5128975;27;20579;-70
2021/04/02 07:20:38;;;;;;;22.95;6.03;;;;;;;4.53;77.09;102545.56;5128850;27;20038;-72
2021/04/02 07:23:04;;;;;;;26.40;6.63;;;;;;;4.62;76.48;102554.78;5126845;27;20023;-69
2021/04/02 07:25:30;;;;;;;22.27;5.40;;;;;;;4.68;75.39;102552.50;5127782;27;20027;-69
2021/04/02 07:27:57;;;;;;;21.98;5.80;;;;;;;4.71;75.79;102553.53;5124260;27;20127;-69
2021/04/02 07:30:25;;;;;;;20.73;6.10;;;;;;;4.80;74.93;102561.00;5122588;27;20575;-69
2021/04/02 07:32:51;;;;;;;22.23;5.55;;;;;;;4.85;74.60;102559.56;5129700;27;20027;-68
2021/04/02 07:35:19;;;;;;;22.52;5.70;;;;;;;4.99;75.20;102556.78;5132491;27;20484;-70
2021/04/02 07:37:50;;;;;;;22.35;5.50;;;;;;;5.13;73.63;102561.06;5132854;27;20084;-69
2021/04/02 07:40:16;;;;;;;24.02;5.70;;;;;;;5.20;73.37;102563.19;5130158;27;20055;-69
2021/04/02 07:42:48;;;;;;;21.83;5.80;;;;;;;5.32;72.99;102559.44;5132506;27;20029;-69
2021/04/02 07:45:18;;;;;;;23.70;5.15;;;;;;;5.50;71.57;102562.13;5130944;27;20534;-69
2021/04/02 07:47:50;;;;;;;23.02;5.55;;;;;;;5.79;70.85;102558.38;5132551;27;20107;-70
2021/04/02 07:50:28;;;;;;;22.50;4.80;;;;;;;5.95;69.52;102570.56;5132303;27;20034;-69
2021/04/02 07:52:55;;;;;;;20.83;5.13;;;;;;;6.33;68.61;102575.97;5131584;27;20039;-69
2021/04/02 07:55:20;;;;;;;24.33;5.30;;;;;;;6.52;67.04;102569.88;5131250;27;20466;-66
2021/04/02 07:57:57;;;;;;;21.70;4.72;;;;;;;6.77;67.09;102575.50;5132232;27;20034;-69
2021/04/02 08:00:25;;;;;;;21.40;4.57;;;;;;;6.76;65.25;102572.81;5132249;27;20473;-66
2021/04/02 08:03:13;;;;;;;22.27;4.70;;;;;;;6.65;65.33;102571.38;5132185;27;20087;-68
2021/04/02 08:05:46;;;;;;;20.80;4.72;;;;;;;6.33;65.00;102570.72;5130829;27;20019;-69
2021/04/02 08:08:15;;;;;;;19.63;4.38;;;;;;;6.12;65.61;102574.09;5130521;27;20072;-68
2021/04/02 08:11:05;;;;;;;22.25;4.63;;;;;;;6.05;66.58;102580.75;5132238;27;20027;-66
2021/04/02 08:14:08;;;;;;;18.85;4.40;;;;;;;6.05;66.37;102582.47;5137982;27;20446;-67
2021/04/02 08:16:52;;;;;;;21.42;4.60;;;;;;;6.26;65.56;102590.50;5133806;27;20094;-68
2021/04/02 08:19:25;;;;;;;21.13;4.60;;;;;;;6.38;64.77;102580.63;5130765;28;20039;-67
2021/04/02 08:21:52;;;;;;;;;;;;;;;6.49;64.85;102583.78;5132384;27;20031;-66
2021/04/02 08:24:21;;;;;;;19.27;4.28;;;;;;;6.49;63.65;102577.63;5131335;27;19911;-67
2021/04/02 08:26:48;;;;;;;22.75;4.40;;;;;;;6.36;63.15;102586.63;5132153;28;20034;-68
2021/04/02 08:29:15;;;;;;;22.42;4.47;;;;;;;6.39;64.10;102582.44;5129693;27;20023;-69
2021/04/02 08:31:50;;;;;;;24.00;4.70;;;;;;;6.59;64.21;102585.13;5131506;27;20027;-68
2021/04/02 08:34:17;;;;;;;19.38;4.30;;;;;;;6.97;61.48;102589.59;5129116;28;20525;-66
2021/04/02 08:36:44;;;;;;;18.88;4.32;;;;;;;7.66;59.90;102581.28;5126895;27;20031;-66
2021/04/02 08:39:10;;;;;;;19.48;4.28;;;;;;;8.41;58.44;102589.69;5127855;27;20015;-69
2021/04/02 08:41:35;;;;;;;19.77;4.40;;;;;;;8.91;55.70;102588.19;5129280;27;20047;-72
2021/04/02 08:44:01;;;;;;;19.90;4.00;;;;;;;9.21;55.17;102595.50;5131129;28;20365;-73
2021/04/02 08:46:37;;;;;;;22.20;4.45;;;;;;;10.19;54.07;102599.84;5130660;27;20102;-69
2021/04/02 08:49:03;;;;;;;20.38;4.47;;;;;;;10.85;51.61;102588.81;5129187;27;20027;-69
2021/04/02 08:51:29;;;;;;;16.92;3.63;;;;;;;10.85;50.40;102593.19;5127972;27;20026;-71
2021/04/02 08:53:54;;;;;;;20.33;4.10;;;;;;;10.27;50.62;102593.09;5126842;27;20456;-70
2021/04/02 08:56:21;;;;;;;21.35;4.10;;;;;;;9.85;50.80;102589.03;5129296;27;20023;-69
2021/04/02 08:58:48;;;;;;;22.50;6.50;;;;;;;9.64;52.65;102591.81;5130910;27;20033;-67
2021/04/02 09:01:16;;;;;;;24.50;4.50;;;;;;;9.33;53.17;102590.66;5131116;27;20133;-68
2021/04/02 09:03:42;;;;;;;20.17;4.03;;;;;;;9.07;53.42;102592.31;5131542;27;20024;-68
2021/04/02 09:06:09;;;;;;;20.33;4.72;;;;;;;9.11;53.38;102582.81;5135296;27;20035;-66
2021/04/02 09:08:36;;;;;;;20.35;5.25;;;;;;;9.25;52.68;102593.03;5135416;27;20019;-67
2021/04/02 09:11:04;;;;;;;20.80;5.57;;;;;;;9.29;52.42;102595.78;5135508;27;20023;-71
2021/04/02 09:13:38;;;;;;;20.23;4.40;;;;;;;9.36;52.18;102596.09;5134437;27;20027;-70
2021/04/02 09:16:05;;;;;;;19.85;4.20;;;;;;;9.33;51.02;102595.94;5132100;27;20058;-69
2021/04/02 09:18:30;;;;;;;18.40;4.13;;;;;;;9.64;51.36;102591.81;5135327;27;20497;-68
2021/04/02 09:20:57;;;;;;;20.60;4.25;;;;;;;11.05;49.71;102594.69;5135278;27;20023;-70
2021/04/02 09:23:23;;;;;;;20.83;4.10;;;;;;;12.24;44.83;102589.16;5135316;27;20053;-69
2021/04/02 09:25:50;;;;;;;18.77;4.00;;;;;;;12.07;43.52;102589.63;5134787;27;20027;-68
2021/04/02 09:28:21;;;;;;;17.92;3.83;;;;;;;11.76;45.98;102585.25;5134945;27;20023;-69
2021/04/02 09:30:47;;;;;;;17.75;4.00;;;;;;;11.83;45.35;102588.09;5135001;27;20072;-67
2021/04/02 09:33:17;;;;;;;15.45;3.60;;;;;;;11.96;45.18;102580.50;5134845;27;20019;-66
2021/04/02 09:35:43;;;;;;;20.02;4.32;;;;;;;11.75;45.32;102586.09;5132522;27;20439;-72
2021/04/02 09:38:09;;;;;;;18.67;3.90;;;;;;;11.94;44.71;102567.22;5131197;27;20023;-69
2021/04/02 09:40:34;;;;;;;19.95;4.18;;;;;;;11.69;44.68;102584.16;5125328;27;20411;-73
2021/04/02 09:43:00;;;;;;;18.90;4.25;;;;;;;11.30;45.42;102585.75;5129693;27;20040;-71
2021/04/02 09:45:28;;;;;;;17.83;3.85;;;;;;;11.07;45.49;102587.72;5130015;27;20442;-69
2021/04/02 09:47:54;;;;;;;21.00;4.28;;;;;;;10.71;46.12;102598.06;5132762;27;20122;-69
2021/04/02 09:50:20;;;;;;;15.75;3.97;;;;;;;10.65;46.41;102593.47;5134365;27;20068;-68
2021/04/02 09:52:46;;;;;;;17.70;3.83;;;;;;;10.91;45.57;102585.47;5134610;27;20027;-69
2021/04/02 09:55:12;;;;;;;19.80;4.22;;;;;;;10.94;45.33;102585.56;5133985;27;20088;-68
2021/04/02 09:57:38;;;;;;;18.25;3.67;;;;;;;10.84;44.65;102583.47;5134389;27;20038;-70
2021/04/02 10:00:07;;;;;;;19.05;3.88;;;;;;;10.46;45.64;102584.06;5134768;27;20023;-68
2021/04/02 10:02:34;;;;;;;17.65;4.05;;;;;;;11.33;45.51;102574.34;5133987;27;20035;-68
2021/04/02 10:04:59;;;;;;;16.05;3.83;;;;;;;13.22;41.94;102580.81;5133159;27;20107;-67
2021/04/02 10:07:25;;;;;;;18.90;4.00;;;;;;;13.93;38.70;102576.88;5134034;27;20114;-65
2021/04/02 10:09:50;;;;;;;18.90;4.10;;;;;;;13.74;39.01;102585.41;5134271;27;20023;-65
2021/04/02 10:12:15;;;;;;;22.35;4.57;;;;;;;13.50;39.78;102584.06;5134695;27;20027;-65
2021/04/02 10:14:41;;;;;;;17.90;3.78;;;;;;;13.37;39.93;102576.72;5133802;27;20019;-65
2021/04/02 10:17:11;;;;;;;19.45;3.85;;;;;;;13.20;40.57;102571.91;5133365;27;20096;-66
2021/04/02 10:19:37;;;;;;;17.45;4.10;;;;;;;13.66;38.72;102571.97;5133436;27;20068;-67
2021/04/02 10:22:03;;;;;;;16.75;3.97;;;;;;;13.68;38.86;102564.03;5134036;27;20062;-65
2021/04/02 10:24:28;;;;;;;16.98;3.85;;;;;;;13.27;39.45;102572.06;5133391;27;20444;-65
2021/04/02 10:26:55;;;;;;;17.80;3.75;;;;;;;12.53;39.97;102572.19;5133917;27;20038;-65
2021/04/02 10:29:21;;;;;;;18.60;4.00;;;;;;;12.11;41.82;102572.06;5131951;27;20062;-67
2021/04/02 10:31:46;;;;;;;22.42;6.07;;;;;;;12.18;42.07;102569.59;5133410;27;20054;-66
2021/04/02 10:34:11;;;;;;;20.58;4.28;;;;;;;12.45;41.85;102579.09;5132490;27;20023;-68
2021/04/02 10:36:37;;;;;;;20.95;4.63;;;;;;;12.36;42.70;102581.50;5133503;27;20386;-69
2021/04/02 10:39:02;;;;;;;18.42;4.40;;;;;;;11.98;42.15;102581.44;5134872;27;20498;-65
2021/04/02 10:41:27;;;;;;;16.92;4.50;;;;;;;11.96;42.33;102589.34;5133799;27;20454;-65
2021/04/02 10:43:53;;;;;;;22.77;5.55;;;;;;;12.05;42.13;102580.75;5133363;27;20389;-65
2021/04/02 10:46:18;;;;;;;18.83;4.57;;;;;;;13.19;40.76;102583.41;5133010;27;20026;-65
2021/04/02 10:48:43;;;;;;;22.08;4.40;;;;;;;13.80;38.77;102584.63;5133465;27;20129;-65
2021/04/02 10:51:09;;;;;;;20.48;5.43;;;;;;;13.47;38.53;102578.69;5131505;27;20016;-64
2021/04/02 10:53:35;;;;;;;19.75;4.30;;;;;;;12.96;39.27;102582.00;5128020;27;20039;-65
2021/04/02 10:56:03;;;;;;;18.25;4.40;;;;;;;12.56;40.02;102577.56;5130590;27;20019;-65
2021/04/02 10:58:29;;;;;;;16.00;3.85;;;;;;;12.33;41.24;102578.78;5133165;27;20035;-65
2021/04/02 11:00:55;;;;;;;17.08;4.10;;;;;;;12.39;41.52;102578.91;5132802;27;20426;-65
2021/04/02 11:03:20;;;;;;;18.75;4.03;;;;;;;12.24;41.77;102584.75;5132457;27;20023;-65
2021/04/02 11:05:45;;;;;;;19.15;4.22;;;;;;;12.03;42.29;102587.78;5133019;27;20076;-66
2021/04/02 11:08:11;;;;;;;18.08;4.30;;;;;;;11.80;43.73;102588.00;5132928;27;20381;-65
2021/04/02 11:10:36;;;;;;;19.60;4.43;;;;;;;11.73;43.04;102586.03;5131159;27;20024;-66
2021/04/02 11:13:02;;;;;;;16.75;4.35;;;;;;;11.55;42.68;102588.19;5131184;27;20500;-66
2021/04/02 11:15:27;;;;;;;20.02;4.38;;;;;;;11.50;43.31;102585.41;5132447;27;20469;-65
2021/04/02 11:17:52;;;;;;;18.00;4.35;;;;;;;11.67;42.95;102585.88;5131777;27;20093;-65
2021/04/02 11:20:20;;;;;;;19.75;4.63;;;;;;;12.06;42.89;102590.50;5132913;27;20027;-65
2021/04/02 11:22:47;;;;;;;19.10;4.68;;;;;;;12.49;41.90;102590.66;5133122;27;20019;-66
2021/04/02 11:25:14;;;;;;;20.50;4.57;;;;;;;12.79;40.79;102586.94;5132206;27;20019;-67
2021/04/02 11:27:40;;;;;;;19.60;4.63;;;;;;;13.01;40.46;102591.88;5131997;27;20015;-65